createdAt,value
2023-01-18T00:01:36.701Z,45.52
2023-01-18T00:04:07.269Z,46.35
2023-01-18T00:06:37.796Z,46.71
2023-01-18T00:09:08.412Z,46.16
2023-01-18T00:11:40.796Z,46.12
2023-01-18T00:14:12.452Z,45.54
2023-01-18T00:16:42.962Z,45.65
2023-01-18T00:19:14.260Z,45.74
2023-01-18T00:21:44.818Z,45.84
2023-01-18T00:24:16.466Z,45.93
2023-01-18T00:26:47.021Z,46.81
2023-01-18T00:29:17.934Z,45.98
2023-01-18T00:31:48.887Z,48.52
2023-01-18T00:34:19.591Z,47.94
2023-01-18T00:36:50.781Z,46.55
2023-01-18T00:39:21.334Z,46.70
2023-01-18T00:42:09.927Z,46.45
2023-01-18T00:44:41.516Z,46.69
2023-01-18T00:47:12.152Z,45.43
2023-01-18T00:49:42.676Z,45.00
2023-01-18T00:52:13.242Z,45.05
2023-01-18T00:54:43.806Z,45.48
2023-01-18T00:57:14.435Z,45.31
2023-01-18T00:59:46.801Z,45.02
2023-01-18T01:02:18.526Z,45.48
2023-01-18T01:05:07.250Z,44.72
2023-01-18T01:07:37.960Z,45.16
2023-01-18T01:10:09.222Z,45.59
2023-01-18T01:12:57.838Z,45.87
2023-01-18T01:15:46.220Z,45.90
2023-01-18T01:18:35.562Z,46.10
2023-01-18T01:21:24.117Z,45.78
2023-01-18T01:24:12.300Z,46.03
2023-01-18T01:26:43.034Z,45.97
2023-01-18T01:29:13.677Z,46.19
2023-01-18T01:31:44.808Z,46.29
2023-01-18T01:34:15.510Z,46.57
2023-01-18T01:36:46.105Z,46.65
2023-01-18T01:39:16.943Z,45.77
2023-01-18T01:41:49.207Z,45.67
2023-01-18T01:44:24.312Z,45.86
2023-01-18T01:46:57.832Z,46.38
2023-01-18T01:49:34.288Z,46.26
2023-01-18T01:52:11.022Z,45.83
2023-01-18T01:54:47.818Z,45.91
2023-01-18T01:57:21.231Z,46.13
2023-01-18T02:00:00.722Z,46.00
2023-01-18T02:02:33.507Z,46.00
2023-01-18T02:05:07.863Z,46.10
2023-01-18T02:07:38.707Z,45.99
2023-01-18T02:10:10.366Z,45.87
2023-01-18T02:12:43.483Z,46.02
2023-01-18T02:15:14.326Z,46.05
2023-01-18T02:17:50.574Z,46.02
2023-01-18T02:20:58.855Z,46.73
2023-01-18T02:23:40.885Z,46.92
2023-01-18T02:26:29.057Z,46.96
2023-01-18T02:31:59.978Z,47.87
2023-01-18T02:34:42.217Z,46.95
2023-01-18T02:37:19.496Z,46.71
2023-01-18T02:40:11.209Z,47.15
2023-01-18T02:43:02.288Z,46.57
2023-01-18T02:45:53.592Z,46.61
2023-01-18T02:48:25.856Z,46.55
2023-01-18T02:50:56.419Z,46.91
2023-01-18T02:53:27.026Z,47.00
2023-01-18T02:56:00.468Z,46.42
2023-01-18T02:58:36.804Z,46.05
2023-01-18T03:01:29.365Z,46.38
2023-01-18T03:04:05.618Z,46.40
2023-01-18T03:06:36.869Z,46.31
2023-01-18T03:09:07.483Z,47.50
2023-01-18T03:11:46.922Z,47.34
2023-01-18T03:14:36.617Z,46.70
2023-01-18T03:17:25.530Z,45.78
2023-01-18T03:20:07.993Z,45.97
2023-01-18T03:22:59.204Z,45.60
2023-01-18T03:25:44.048Z,45.13
2023-01-18T03:31:02.503Z,46.06
2023-01-18T03:33:48.179Z,45.57
2023-01-18T03:36:24.304Z,45.79
2023-01-18T03:39:13.393Z,45.35
2023-01-18T03:41:46.957Z,45.23
2023-01-18T03:44:29.588Z,45.87
2023-01-18T03:47:00.245Z,45.99
2023-01-18T03:49:31.802Z,45.29
2023-01-18T03:52:11.189Z,45.35
2023-01-18T03:54:47.499Z,46.16
2023-01-18T03:57:36.061Z,45.78
2023-01-18T04:00:08.477Z,45.24
2023-01-18T04:02:40.422Z,45.08
2023-01-18T04:05:12.664Z,44.88
2023-01-18T04:07:43.946Z,45.90
2023-01-18T04:10:14.483Z,45.32
2023-01-18T04:12:46.076Z,46.20
2023-01-18T04:15:17.049Z,45.61
2023-01-18T04:17:49.256Z,45.59
2023-01-18T04:20:19.912Z,45.45
2023-01-18T04:22:54.363Z,45.75
2023-01-18T04:25:24.977Z,45.38
2023-01-18T04:27:55.827Z,45.97
2023-01-18T04:30:27.520Z,46.23
2023-01-18T04:32:58.527Z,46.12
2023-01-18T04:35:29.215Z,45.55
2023-01-18T04:37:59.909Z,46.24
2023-01-18T04:40:30.533Z,46.82
2023-01-18T04:43:01.410Z,45.89
2023-01-18T04:45:32.348Z,45.75
2023-01-18T04:48:02.968Z,46.00
2023-01-18T04:50:33.619Z,46.65
2023-01-18T04:53:04.132Z,46.23
2023-01-18T04:55:34.687Z,46.38
2023-01-18T04:58:05.237Z,46.14
2023-01-18T05:00:35.797Z,46.32
2023-01-18T05:03:07.119Z,46.22
2023-01-18T05:05:37.690Z,46.46
2023-01-18T05:08:08.228Z,46.54
2023-01-18T05:10:38.760Z,46.13
2023-01-18T05:13:09.341Z,46.40
2023-01-18T05:15:40.180Z,46.56
2023-01-18T05:18:10.700Z,47.22
2023-01-18T05:20:41.246Z,47.14
2023-01-18T05:23:11.780Z,48.06
2023-01-18T05:25:42.429Z,47.46
2023-01-18T05:28:12.973Z,46.77
2023-01-18T05:30:44.984Z,46.28
2023-01-18T05:33:15.626Z,46.58
2023-01-18T05:35:50.287Z,46.14
2023-01-18T05:38:21.462Z,46.45
2023-01-18T05:40:54.272Z,46.40
2023-01-18T05:43:27.138Z,46.77
2023-01-18T05:45:58.365Z,46.85
2023-01-18T05:48:29.926Z,47.11
2023-01-18T05:51:00.468Z,46.49
2023-01-18T05:53:31.066Z,46.70
2023-01-18T05:56:03.367Z,46.32
2023-01-18T05:58:35.257Z,46.74
2023-01-18T06:01:07.868Z,47.05
2023-01-18T06:03:38.536Z,47.09
2023-01-18T06:06:09.064Z,46.73
2023-01-18T06:08:39.743Z,46.97
2023-01-18T06:11:11.386Z,46.93
2023-01-18T06:13:41.973Z,46.78
2023-01-18T06:16:12.556Z,47.04
2023-01-18T06:18:43.153Z,47.41
2023-01-18T06:21:13.701Z,47.53
2023-01-18T06:23:44.419Z,47.22
2023-01-18T06:26:14.981Z,47.89
2023-01-18T06:28:45.855Z,47.92
2023-01-18T06:31:16.517Z,48.05
2023-01-18T06:33:47.048Z,47.75
2023-01-18T06:36:17.592Z,46.23
2023-01-18T06:38:48.163Z,45.85
2023-01-18T06:41:18.710Z,45.46
2023-01-18T06:43:50.975Z,45.30
2023-01-18T06:46:21.915Z,44.87
2023-01-18T06:48:52.495Z,44.83
2023-01-18T06:51:23.166Z,45.58
2023-01-18T06:53:53.765Z,47.04
2023-01-18T06:56:26.943Z,46.58
2023-01-18T06:58:59.002Z,47.12
2023-01-18T07:01:29.974Z,46.98
2023-01-18T07:04:00.766Z,47.71
2023-01-18T07:06:32.315Z,47.67
2023-01-18T07:09:05.985Z,47.99
2023-01-18T07:11:37.322Z,47.25
2023-01-18T07:14:07.866Z,48.11
2023-01-18T07:16:38.434Z,48.46
2023-01-18T07:19:09.288Z,48.02
2023-01-18T07:21:40.123Z,48.20
2023-01-18T07:24:10.720Z,48.95
2023-01-18T07:26:41.270Z,48.23
2023-01-18T07:29:12.129Z,48.10
2023-01-18T07:31:43.791Z,47.42
2023-01-18T07:34:14.528Z,48.66
2023-01-18T07:36:45.464Z,48.17
2023-01-18T07:39:16.117Z,47.61
2023-01-18T07:41:46.673Z,48.24
2023-01-18T07:44:17.359Z,49.34
2023-01-18T07:46:47.912Z,48.20
2023-01-18T07:49:18.420Z,48.46
2023-01-18T07:51:48.988Z,48.49
2023-01-18T07:54:19.907Z,49.92
2023-01-18T07:56:50.467Z,47.50
2023-01-18T07:59:20.980Z,48.06
2023-01-18T08:01:51.645Z,48.23
2023-01-18T08:04:22.379Z,49.17
2023-01-18T08:06:52.947Z,47.65
2023-01-18T08:09:23.478Z,48.66
2023-01-18T08:11:54.049Z,48.09
2023-01-18T08:14:24.565Z,49.25
2023-01-18T08:16:55.157Z,48.88
2023-01-18T08:19:25.712Z,50.09
2023-01-18T08:21:56.273Z,49.42
2023-01-18T08:24:28.552Z,50.46
2023-01-18T08:26:59.180Z,50.47
2023-01-18T08:29:29.720Z,49.96
2023-01-18T08:32:00.908Z,49.67
2023-01-18T08:34:31.422Z,49.50
2023-01-18T08:37:02.030Z,50.49
2023-01-18T08:39:32.593Z,49.89
2023-01-18T08:42:03.169Z,49.59
2023-01-18T08:44:36.733Z,49.77
2023-01-18T08:47:08.890Z,49.61
2023-01-18T08:49:39.507Z,49.66
2023-01-18T08:52:11.078Z,50.25
2023-01-18T08:54:41.844Z,50.05
2023-01-18T08:57:12.427Z,50.05
2023-01-18T08:59:42.958Z,50.47
2023-01-18T09:02:13.894Z,49.66
2023-01-18T09:04:46.335Z,50.00
2023-01-18T09:07:17.514Z,50.25
2023-01-18T09:09:48.146Z,51.46
2023-01-18T09:12:19.028Z,51.06
2023-01-18T09:14:50.261Z,49.85
2023-01-18T09:17:21.431Z,51.45
2023-01-18T09:19:52.887Z,49.95
2023-01-18T09:22:24.389Z,49.52
2023-01-18T09:24:55.150Z,50.21
2023-01-18T09:27:25.753Z,50.09
2023-01-18T09:29:57.414Z,50.47
2023-01-18T09:32:29.595Z,49.89
2023-01-18T09:35:00.156Z,50.08
2023-01-18T09:37:31.687Z,50.50
2023-01-18T09:40:02.519Z,49.95
2023-01-18T09:42:35.980Z,50.22
2023-01-18T09:45:07.310Z,50.15
2023-01-18T09:47:43.539Z,49.39
2023-01-18T09:50:19.726Z,49.70
2023-01-18T09:52:56.014Z,49.99
2023-01-18T09:55:35.273Z,50.63
2023-01-18T09:58:43.856Z,49.80
2023-01-18T10:01:20.526Z,49.65
2023-01-18T10:03:54.789Z,50.20
2023-01-18T10:06:28.261Z,49.86
2023-01-18T10:09:08.484Z,49.37
2023-01-18T10:12:00.742Z,49.15
2023-01-18T10:14:40.115Z,49.83
2023-01-18T10:17:17.955Z,48.73
2023-01-18T10:19:48.716Z,50.37
2023-01-18T10:22:24.963Z,50.09
2023-01-18T10:25:25.618Z,49.57
2023-01-18T10:28:08.200Z,48.08
2023-01-18T10:30:44.644Z,48.26
2023-01-18T10:33:29.869Z,49.18
2023-01-18T10:36:05.935Z,49.06
2023-01-18T10:38:38.171Z,49.12
2023-01-18T10:41:11.681Z,49.97
2023-01-18T10:43:42.313Z,48.93
2023-01-18T10:46:15.988Z,50.49
2023-01-18T10:48:49.405Z,49.97
2023-01-18T10:51:36.123Z,48.50
2023-01-18T10:54:27.106Z,49.15
2023-01-18T10:57:09.132Z,50.03
2023-01-18T10:59:41.716Z,50.06
2023-01-18T11:02:21.323Z,50.58
2023-01-18T11:04:56.946Z,49.46
2023-01-18T11:07:29.752Z,49.37
2023-01-18T11:10:02.830Z,50.52
2023-01-18T11:12:48.806Z,51.26
2023-01-18T11:15:22.443Z,51.15
2023-01-18T11:17:58.717Z,51.51
2023-01-18T11:20:51.222Z,51.89
2023-01-18T11:23:25.663Z,50.01
2023-01-18T11:26:09.260Z,51.52
2023-01-18T11:28:47.314Z,53.48
2023-01-18T11:31:22.499Z,53.26
2023-01-18T11:33:59.434Z,54.27
2023-01-18T11:36:42.111Z,54.74
2023-01-18T11:39:33.461Z,56.37
2023-01-18T11:42:23.805Z,57.83
2023-01-18T11:45:16.586Z,56.97
2023-01-18T11:48:05.731Z,57.10
2023-01-18T11:51:00.425Z,56.18
2023-01-18T11:53:54.430Z,56.06
2023-01-18T11:56:30.564Z,56.50
2023-01-18T11:59:03.491Z,54.83
2023-01-18T12:01:36.979Z,54.93
2023-01-18T12:04:19.171Z,57.28
2023-01-18T12:07:02.725Z,56.42
2023-01-18T12:09:56.568Z,56.66
2023-01-18T12:12:52.402Z,56.82
2023-01-18T12:15:50.077Z,56.67
2023-01-18T12:18:43.957Z,60.75
2023-01-18T12:21:29.369Z,57.83
2023-01-18T12:24:19.133Z,59.60
2023-01-18T12:26:59.719Z,58.66
2023-01-18T12:29:33.222Z,58.81
2023-01-18T12:32:32.728Z,61.56
2023-01-18T12:35:46.894Z,60.64
2023-01-18T12:38:41.056Z,60.93
2023-01-18T12:41:45.289Z,58.74
2023-01-18T12:44:36.712Z,58.21
2023-01-18T12:47:35.373Z,55.75
2023-01-18T12:50:08.976Z,57.77
2023-01-18T12:52:42.505Z,60.78
2023-01-18T12:55:16.725Z,62.46
2023-01-18T12:57:47.517Z,59.88
2023-01-18T13:00:38.446Z,61.57
2023-01-18T13:03:15.808Z,60.04
2023-01-18T13:05:58.864Z,62.54
2023-01-18T13:08:35.311Z,61.60
2023-01-18T13:11:17.558Z,59.39
2023-01-18T13:13:50.630Z,59.90
2023-01-18T13:16:40.675Z,59.21
2023-01-18T13:19:17.221Z,60.19
2023-01-18T13:21:54.597Z,57.32
2023-01-18T13:24:56.921Z,57.02
2023-01-18T13:27:27.614Z,57.31
2023-01-18T13:30:01.145Z,56.60
2023-01-18T13:32:34.602Z,57.07
2023-01-18T13:35:25.958Z,55.92
2023-01-18T13:37:59.536Z,56.97
2023-01-18T13:40:41.653Z,56.62
2023-01-18T13:43:32.809Z,56.61
2023-01-18T13:46:10.089Z,55.76
2023-01-18T13:49:02.639Z,56.98
2023-01-18T13:51:43.919Z,55.73
2023-01-18T13:54:20.118Z,55.40
2023-01-18T13:57:09.837Z,55.92
2023-01-18T13:59:47.495Z,59.22
2023-01-18T14:02:34.214Z,55.78
2023-01-18T14:05:25.495Z,57.29
2023-01-18T14:07:58.229Z,62.30
2023-01-18T14:10:42.297Z,62.86
2023-01-18T14:13:17.909Z,63.16
2023-01-18T14:15:54.311Z,64.75
2023-01-18T14:18:31.262Z,60.79
2023-01-18T14:21:22.905Z,62.43
2023-01-18T14:24:16.889Z,66.42
2023-01-18T14:26:49.695Z,65.74
2023-01-18T14:29:23.205Z,64.59
2023-01-18T14:31:56.285Z,62.72
2023-01-18T14:34:32.297Z,63.76
2023-01-18T14:37:03.275Z,61.61
2023-01-18T14:39:33.842Z,63.06
2023-01-18T14:42:07.935Z,62.43
2023-01-18T14:44:57.732Z,65.46
2023-01-18T14:47:24.239Z,64.77
2023-01-18T14:50:10.716Z,65.11
2023-01-18T14:52:44.817Z,67.89
2023-01-18T14:55:27.120Z,71.69
2023-01-18T14:58:12.541Z,69.17
2023-01-18T15:00:49.088Z,69.52
2023-01-18T15:03:26.952Z,69.85
2023-01-18T15:08:56.026Z,70.50
2023-01-18T15:11:34.566Z,71.40
2023-01-18T15:14:16.144Z,74.02
2023-01-18T15:16:50.895Z,72.91
2023-01-18T15:19:29.108Z,71.39
2023-01-18T15:22:04.416Z,73.60
2023-01-18T15:24:41.995Z,72.95
2023-01-18T15:27:20.236Z,69.87
2023-01-18T15:29:57.242Z,68.37
2023-01-18T15:32:31.716Z,68.61
2023-01-18T15:35:14.658Z,69.32
2023-01-18T15:37:45.199Z,66.72
2023-01-18T15:40:21.582Z,69.79
2023-01-18T15:42:53.337Z,69.07
2023-01-18T15:45:29.815Z,66.40
2023-01-18T15:48:11.031Z,64.73
2023-01-18T15:50:53.428Z,64.99
2023-01-18T15:53:36.684Z,71.98
2023-01-18T15:56:13.089Z,68.44
2023-01-18T15:58:51.880Z,69.62
2023-01-18T16:01:27.128Z,71.65
2023-01-18T16:04:03.733Z,68.67
2023-01-18T16:06:41.774Z,69.05
2023-01-18T16:09:16.687Z,68.58
2023-01-18T16:11:54.913Z,68.36
2023-01-18T16:14:33.279Z,67.87
2023-01-18T16:17:18.695Z,67.42
2023-01-18T16:19:55.352Z,63.66
2023-01-18T16:22:29.891Z,64.26
2023-01-18T16:25:04.348Z,68.34
2023-01-18T16:27:52.503Z,64.63
2023-01-18T16:30:35.751Z,63.64
2023-01-18T16:33:13.742Z,61.65
2023-01-18T16:35:46.277Z,61.23
2023-01-18T16:38:25.046Z,64.41
2023-01-18T16:40:56.547Z,61.05
2023-01-18T16:43:33.184Z,62.12
2023-01-18T16:46:06.006Z,59.00
2023-01-18T16:48:39.651Z,60.57
2023-01-18T16:51:19.600Z,58.15
2023-01-18T16:53:50.908Z,61.00
2023-01-18T16:56:24.608Z,60.71
2023-01-18T16:58:59.649Z,61.46
2023-01-18T17:01:32.954Z,63.61
2023-01-18T17:04:07.145Z,60.38
2023-01-18T17:06:40.338Z,58.96
2023-01-18T17:09:28.113Z,58.02
2023-01-18T17:12:03.508Z,58.59
2023-01-18T17:14:37.752Z,56.18
2023-01-18T17:17:11.321Z,54.49
2023-01-18T17:19:44.911Z,55.80
2023-01-18T17:22:18.867Z,55.97
2023-01-18T17:24:52.150Z,56.19
2023-01-18T17:27:24.840Z,58.76
2023-01-18T17:29:59.240Z,58.29
2023-01-18T17:35:28.004Z,56.50
2023-01-18T17:38:11.364Z,56.01
2023-01-18T17:40:42.624Z,57.49
2023-01-18T17:43:33.459Z,54.95
2023-01-18T17:46:01.235Z,57.52
2023-01-18T17:48:30.361Z,56.53
2023-01-18T17:51:13.096Z,59.87
2023-01-18T17:53:47.975Z,56.01
2023-01-18T17:56:23.749Z,54.96
2023-01-18T17:58:57.339Z,59.65
2023-01-18T18:01:34.114Z,59.03
2023-01-18T18:04:07.460Z,59.45
2023-01-18T18:06:53.341Z,58.96
2023-01-18T18:09:15.967Z,60.33
2023-01-18T18:11:48.114Z,57.85
2023-01-18T18:14:28.077Z,58.20
2023-01-18T18:17:07.971Z,60.95
2023-01-18T18:19:43.987Z,59.49
2023-01-18T18:22:16.406Z,58.04
2023-01-18T18:24:50.164Z,57.96
2023-01-18T18:27:37.523Z,59.10
2023-01-18T18:30:03.497Z,59.10
2023-01-18T18:32:38.291Z,57.07
2023-01-18T18:35:26.732Z,60.16
2023-01-18T18:37:45.989Z,59.11
2023-01-18T18:40:18.457Z,60.84
2023-01-18T18:43:01.302Z,58.58
2023-01-18T18:45:25.260Z,61.63
2023-01-18T18:48:00.891Z,59.83
2023-01-18T18:50:36.236Z,61.60
2023-01-18T18:53:07.695Z,58.63
2023-01-18T18:55:41.324Z,57.69
2023-01-18T18:58:13.834Z,58.53
2023-01-18T19:00:48.237Z,58.83
2023-01-18T19:03:20.808Z,57.39
2023-01-18T19:05:56.249Z,59.01
2023-01-18T19:08:39.774Z,58.56
2023-01-18T19:11:13.607Z,60.20
2023-01-18T19:13:48.691Z,60.63
2023-01-18T19:16:21.947Z,59.64
2023-01-18T19:18:58.985Z,58.46
2023-01-18T19:21:32.549Z,58.57
2023-01-18T19:24:06.660Z,57.18
2023-01-18T19:26:38.641Z,60.21
2023-01-18T19:29:13.172Z,59.04
2023-01-18T19:31:44.773Z,59.07
2023-01-18T19:34:27.305Z,59.39
2023-01-18T19:36:59.561Z,59.00
2023-01-18T19:39:37.993Z,57.25
2023-01-18T19:42:09.803Z,57.80
2023-01-18T19:44:41.383Z,58.21
2023-01-18T19:47:13.047Z,56.55
2023-01-18T19:49:46.751Z,57.23
2023-01-18T19:52:19.697Z,57.28
2023-01-18T19:54:51.931Z,56.74
2023-01-18T19:57:23.676Z,57.80
2023-01-18T19:59:57.930Z,55.97
2023-01-18T20:02:35.189Z,55.73
2023-01-18T20:05:10.569Z,56.01
2023-01-18T20:07:44.198Z,55.90
2023-01-18T20:10:17.855Z,53.91
2023-01-18T20:12:53.625Z,54.53
2023-01-18T20:15:26.210Z,53.88
2023-01-18T20:17:57.800Z,56.16
2023-01-18T20:20:32.736Z,55.83
2023-01-18T20:23:04.469Z,57.21
2023-01-18T20:25:36.644Z,55.57
2023-01-18T20:28:10.876Z,54.78
2023-01-18T20:30:46.572Z,56.74
2023-01-18T20:33:18.311Z,54.49
2023-01-18T20:35:51.955Z,54.51
2023-01-18T20:38:24.098Z,53.85
2023-01-18T20:40:59.109Z,55.24
2023-01-18T20:43:32.191Z,54.97
2023-01-18T20:46:08.589Z,54.73
2023-01-18T20:48:41.151Z,53.96
2023-01-18T20:51:13.078Z,54.43
2023-01-18T20:53:45.170Z,53.83
2023-01-18T20:56:28.843Z,54.48
2023-01-18T20:58:51.583Z,53.95
2023-01-18T21:01:31.925Z,54.39
2023-01-18T21:04:05.317Z,53.96
2023-01-18T21:06:39.093Z,53.54
2023-01-18T21:09:12.543Z,53.02
2023-01-18T21:11:45.991Z,53.26
2023-01-18T21:14:17.903Z,53.41
2023-01-18T21:16:51.838Z,52.97
2023-01-18T21:19:30.234Z,53.60
2023-01-18T21:22:05.084Z,52.88
2023-01-18T21:24:39.624Z,52.54
2023-01-18T21:27:21.866Z,52.41
2023-01-18T21:29:57.856Z,52.21
2023-01-18T21:32:31.309Z,51.80
2023-01-18T21:35:10.560Z,52.39
2023-01-18T21:37:43.651Z,53.88
2023-01-18T21:40:17.175Z,56.66
2023-01-18T21:43:07.350Z,57.97
2023-01-18T21:45:57.080Z,54.63
2023-01-18T21:48:31.310Z,55.89
2023-01-18T21:51:23.710Z,55.81
2023-01-18T21:54:19.441Z,56.21
2023-01-18T21:56:54.008Z,55.83
2023-01-18T21:59:29.418Z,56.75
2023-01-18T22:02:02.096Z,57.14
2023-01-18T22:04:52.245Z,56.28
2023-01-18T22:07:25.982Z,57.04
2023-01-18T22:10:05.189Z,55.60
2023-01-18T22:12:36.553Z,54.19
2023-01-18T22:15:10.864Z,54.77
2023-01-18T22:17:45.840Z,54.29
2023-01-18T22:20:19.587Z,53.84
2023-01-18T22:22:51.713Z,55.29
2023-01-18T22:25:24.172Z,55.66
2023-01-18T22:27:56.891Z,58.58
2023-01-18T22:30:30.953Z,56.85
2023-01-18T22:33:02.625Z,56.30
2023-01-18T22:35:36.261Z,56.50
2023-01-18T22:38:11.358Z,54.23
2023-01-18T22:40:42.686Z,54.74
2023-01-18T22:43:19.317Z,55.72
2023-01-18T22:45:57.590Z,55.74
2023-01-18T22:48:30.608Z,54.69
2023-01-18T22:51:04.845Z,53.69
2023-01-18T22:53:37.161Z,53.33
2023-01-18T22:56:14.128Z,53.48
2023-01-18T22:58:46.844Z,55.37
2023-01-18T23:01:25.666Z,54.28
2023-01-18T23:04:05.785Z,54.79
2023-01-18T23:06:46.020Z,54.09
2023-01-18T23:09:22.051Z,53.67
2023-01-18T23:11:56.213Z,52.11
2023-01-18T23:14:50.015Z,51.75
2023-01-18T23:17:40.137Z,51.88
2023-01-18T23:20:24.916Z,53.47
2023-01-18T23:23:01.203Z,52.74
2023-01-18T23:25:34.422Z,52.98
2023-01-18T23:28:09.533Z,53.98
2023-01-18T23:31:02.113Z,52.98
2023-01-18T23:33:35.588Z,55.58
2023-01-18T23:36:10.408Z,59.72
2023-01-18T23:39:00.626Z,56.25
2023-01-18T23:41:49.137Z,56.26
2023-01-18T23:44:37.566Z,56.93
2023-01-18T23:47:25.713Z,55.36
2023-01-18T23:50:14.251Z,55.51
2023-01-18T23:53:02.727Z,55.55
2023-01-18T23:55:33.549Z,55.20
2023-01-18T23:58:04.362Z,53.98
